sensor_id;sensor_type;location;lat;lon;timestamp;pressure;altitude;pressure_sealevel;temperature;humidity
41898;BME280;27576;53.366;-1.498;2023-04-26T00:02:09;100584.53;;;7.31;80.79
41898;BME280;27576;53.366;-1.498;2023-04-26T00:04:36;100557.34;;;7.12;80.20
41898;BME280;27576;53.366;-1.498;2023-04-26T00:07:01;100550.34;;;7.08;81.00
41898;BME280;27576;53.366;-1.498;2023-04-26T00:09:28;100580.88;;;7.25;81.89
41898;BME280;27576;53.366;-1.498;2023-04-26T00:11:53;100580.03;;;7.24;81.43
41898;BME280;27576;53.366;-1.498;2023-04-26T00:14:19;100543.31;;;7.03;81.59
41898;BME280;27576;53.366;-1.498;2023-04-26T00:16:44;100572.06;;;7.17;82.23
41898;BME280;27576;53.366;-1.498;2023-04-26T00:19:10;100549.25;;;7.00;82.87
41898;BME280;27576;53.366;-1.498;2023-04-26T00:21:36;100541.31;;;6.93;82.81
41898;BME280;27576;53.366;-1.498;2023-04-26T00:24:01;100566.50;;;7.03;83.29
41898;BME280;27576;53.366;-1.498;2023-04-26T00:26:26;100539.28;;;6.82;84.03
41898;BME280;27576;53.366;-1.498;2023-04-26T00:28:54;100516.66;;;6.72;83.98
41898;BME280;27576;53.366;-1.498;2023-04-26T00:31:20;100516.56;;;6.69;84.36
41898;BME280;27576;53.366;-1.498;2023-04-26T00:33:46;100528.06;;;6.80;84.64
41898;BME280;27576;53.366;-1.498;2023-04-26T00:36:12;100512.28;;;6.70;83.67
41898;BME280;27576;53.366;-1.498;2023-04-26T00:38:37;100510.47;;;6.67;84.22
41898;BME280;27576;53.366;-1.498;2023-04-26T00:41:03;100530.53;;;6.77;84.32
41898;BME280;27576;53.366;-1.498;2023-04-26T00:43:28;100558.41;;;6.91;84.25
41898;BME280;27576;53.366;-1.498;2023-04-26T00:45:53;100525.94;;;6.67;84.47
41898;BME280;27576;53.366;-1.498;2023-04-26T00:48:19;100556.47;;;6.83;84.50
41898;BME280;27576;53.366;-1.498;2023-04-26T00:50:45;100521.41;;;6.60;85.40
41898;BME280;27576;53.366;-1.498;2023-04-26T00:53:13;100522.31;;;6.60;84.74
41898;BME280;27576;53.366;-1.498;2023-04-26T00:55:42;100527.53;;;6.63;85.65
41898;BME280;27576;53.366;-1.498;2023-04-26T00:58:09;100556.34;;;6.79;85.90
41898;BME280;27576;53.366;-1.498;2023-04-26T01:00:34;100531.81;;;6.63;86.22
41898;BME280;27576;53.366;-1.498;2023-04-26T01:02:59;100537.06;;;6.66;86.75
41898;BME280;27576;53.366;-1.498;2023-04-26T01:05:25;100506.44;;;6.47;87.32
41898;BME280;27576;53.366;-1.498;2023-04-26T01:07:50;100533.47;;;6.61;87.30
41898;BME280;27576;53.366;-1.498;2023-04-26T01:10:17;100531.78;;;6.61;87.38
41898;BME280;27576;53.366;-1.498;2023-04-26T01:12:43;100499.53;;;6.46;87.77
41898;BME280;27576;53.366;-1.498;2023-04-26T01:15:09;100522.22;;;6.57;88.14
41898;BME280;27576;53.366;-1.498;2023-04-26T01:17:34;100447.22;;;6.18;88.54
41898;BME280;27576;53.366;-1.498;2023-04-26T01:20:02;100526.56;;;6.60;87.68
41898;BME280;27576;53.366;-1.498;2023-04-26T01:22:31;100492.41;;;6.37;88.39
41898;BME280;27576;53.366;-1.498;2023-04-26T01:24:58;100518.78;;;6.57;87.92
41898;BME280;27576;53.366;-1.498;2023-04-26T01:27:25;100471.53;;;6.28;87.77
41898;BME280;27576;53.366;-1.498;2023-04-26T01:29:51;100420.91;;;6.00;88.34
41898;BME280;27576;53.366;-1.498;2023-04-26T01:32:16;100467.06;;;6.22;89.06
41898;BME280;27576;53.366;-1.498;2023-04-26T01:34:42;100487.94;;;6.31;88.80
41898;BME280;27576;53.366;-1.498;2023-04-26T01:37:07;100470.56;;;6.24;88.18
41898;BME280;27576;53.366;-1.498;2023-04-26T01:39:33;100491.44;;;6.33;88.48
41898;BME280;27576;53.366;-1.498;2023-04-26T01:42:00;100505.44;;;6.42;89.61
41898;BME280;27576;53.366;-1.498;2023-04-26T01:44:27;100492.19;;;6.29;90.45
41898;BME280;27576;53.366;-1.498;2023-04-26T01:46:52;100458.09;;;6.09;89.76
41898;BME280;27576;53.366;-1.498;2023-04-26T01:49:17;100478.00;;;6.15;89.78
41898;BME280;27576;53.366;-1.498;2023-04-26T01:51:43;100462.28;;;6.06;89.84
41898;BME280;27576;53.366;-1.498;2023-04-26T01:54:08;100434.47;;;5.94;90.24
41898;BME280;27576;53.366;-1.498;2023-04-26T01:56:35;100474.44;;;6.11;89.15
41898;BME280;27576;53.366;-1.498;2023-04-26T01:59:00;100474.41;;;6.10;89.89
41898;BME280;27576;53.366;-1.498;2023-04-26T02:01:25;100460.56;;;6.06;89.99
41898;BME280;27576;53.366;-1.498;2023-04-26T02:03:51;100487.59;;;6.21;90.20
41898;BME280;27576;53.366;-1.498;2023-04-26T02:06:17;100456.00;;;5.98;89.98
41898;BME280;27576;53.366;-1.498;2023-04-26T02:08:42;100472.72;;;6.10;90.75
41898;BME280;27576;53.366;-1.498;2023-04-26T02:11:07;100460.38;;;6.00;91.32
41898;BME280;27576;53.366;-1.498;2023-04-26T02:13:33;100476.97;;;6.10;89.79
41898;BME280;27576;53.366;-1.498;2023-04-26T02:15:58;100433.34;;;5.87;88.93
41898;BME280;27576;53.366;-1.498;2023-04-26T02:18:24;100470.72;;;6.02;87.94
41898;BME280;27576;53.366;-1.498;2023-04-26T02:20:49;100445.47;;;5.91;86.82
41898;BME280;27576;53.366;-1.498;2023-04-26T02:23:15;100468.06;;;6.00;89.28
41898;BME280;27576;53.366;-1.498;2023-04-26T02:25:41;100477.50;;;6.00;91.16
41898;BME280;27576;53.366;-1.498;2023-04-26T02:28:09;100448.78;;;5.87;91.73
41898;BME280;27576;53.366;-1.498;2023-04-26T02:30:35;100460.13;;;5.93;92.55
41898;BME280;27576;53.366;-1.498;2023-04-26T02:33:00;100473.91;;;5.95;92.85
41898;BME280;27576;53.366;-1.498;2023-04-26T02:35:26;100443.25;;;5.75;92.44
41898;BME280;27576;53.366;-1.498;2023-04-26T02:37:51;100467.84;;;5.93;90.76
41898;BME280;27576;53.366;-1.498;2023-04-26T02:40:20;100461.88;;;5.94;89.18
41898;BME280;27576;53.366;-1.498;2023-04-26T02:42:46;100443.38;;;5.80;89.77
41898;BME280;27576;53.366;-1.498;2023-04-26T02:45:11;100432.88;;;5.74;89.87
41898;BME280;27576;53.366;-1.498;2023-04-26T02:47:37;100430.91;;;5.65;91.02
41898;BME280;27576;53.366;-1.498;2023-04-26T02:50:06;100443.91;;;5.70;90.94
41898;BME280;27576;53.366;-1.498;2023-04-26T02:52:36;100469.13;;;5.81;91.30
41898;BME280;27576;53.366;-1.498;2023-04-26T02:55:02;100461.28;;;5.77;90.17
41898;BME280;27576;53.366;-1.498;2023-04-26T02:57:29;100427.09;;;5.54;91.99
41898;BME280;27576;53.366;-1.498;2023-04-26T02:59:55;100457.59;;;5.69;92.95
41898;BME280;27576;53.366;-1.498;2023-04-26T03:02:20;100405.97;;;5.37;93.31
41898;BME280;27576;53.366;-1.498;2023-04-26T03:04:46;100463.53;;;5.66;92.32
41898;BME280;27576;53.366;-1.498;2023-04-26T03:07:12;100430.38;;;5.50;91.18
41898;BME280;27576;53.366;-1.498;2023-04-26T03:09:37;100441.72;;;5.55;90.26
41898;BME280;27576;53.366;-1.498;2023-04-26T03:12:05;100444.19;;;5.52;90.09
41898;BME280;27576;53.366;-1.498;2023-04-26T03:14:30;100374.38;;;5.14;89.71
41898;BME280;27576;53.366;-1.498;2023-04-26T03:16:57;100363.06;;;5.09;92.08
41898;BME280;27576;53.366;-1.498;2023-04-26T03:19:23;100410.97;;;5.32;93.36
41898;BME280;27576;53.366;-1.498;2023-04-26T03:21:48;100375.19;;;5.13;93.82
41898;BME280;27576;53.366;-1.498;2023-04-26T03:24:13;100410.84;;;5.29;94.25
41898;BME280;27576;53.366;-1.498;2023-04-26T03:26:38;100438.81;;;5.46;94.28
41898;BME280;27576;53.366;-1.498;2023-04-26T03:29:04;100393.28;;;5.16;95.29
41898;BME280;27576;53.366;-1.498;2023-04-26T03:31:30;100409.81;;;5.23;94.67
41898;BME280;27576;53.366;-1.498;2023-04-26T03:33:56;100415.09;;;5.27;93.57
41898;BME280;27576;53.366;-1.498;2023-04-26T03:36:21;100399.19;;;5.13;93.71
41898;BME280;27576;53.366;-1.498;2023-04-26T03:38:47;100435.00;;;5.34;93.99
41898;BME280;27576;53.366;-1.498;2023-04-26T03:41:12;100440.16;;;5.34;95.45
41898;BME280;27576;53.366;-1.498;2023-04-26T03:43:38;100412.97;;;5.15;95.89
41898;BME280;27576;53.366;-1.498;2023-04-26T03:46:03;100415.47;;;5.14;96.40
41898;BME280;27576;53.366;-1.498;2023-04-26T03:48:29;100412.75;;;5.09;97.08
41898;BME280;27576;53.366;-1.498;2023-04-26T03:50:54;100428.47;;;5.18;97.45
41898;BME280;27576;53.366;-1.498;2023-04-26T03:53:20;100424.88;;;5.13;97.36
41898;BME280;27576;53.366;-1.498;2023-04-26T03:55:45;100410.84;;;5.04;98.00
41898;BME280;27576;53.366;-1.498;2023-04-26T03:58:10;100410.03;;;5.05;98.45
41898;BME280;27576;53.366;-1.498;2023-04-26T04:00:37;100399.75;;;5.05;98.59
41898;BME280;27576;53.366;-1.498;2023-04-26T04:03:03;100429.44;;;5.22;98.80
41898;BME280;27576;53.366;-1.498;2023-04-26T04:05:28;100424.28;;;5.21;98.91
41898;BME280;27576;53.366;-1.498;2023-04-26T04:07:54;100373.53;;;4.89;98.85
41898;BME280;27576;53.366;-1.498;2023-04-26T04:10:21;100375.97;;;4.86;98.48
41898;BME280;27576;53.366;-1.498;2023-04-26T04:12:47;100425.22;;;5.23;98.77
41898;BME280;27576;53.366;-1.498;2023-04-26T04:15:13;100418.31;;;5.22;99.30
41898;BME280;27576;53.366;-1.498;2023-04-26T04:17:38;100377.25;;;4.98;99.75
41898;BME280;27576;53.366;-1.498;2023-04-26T04:20:04;100412.84;;;5.12;99.30
41898;BME280;27576;53.366;-1.498;2023-04-26T04:22:31;100391.28;;;5.07;99.49
41898;BME280;27576;53.366;-1.498;2023-04-26T04:24:57;100386.03;;;5.04;100.00
41898;BME280;27576;53.366;-1.498;2023-04-26T04:27:23;100364.41;;;4.98;100.00
41898;BME280;27576;53.366;-1.498;2023-04-26T04:29:49;100397.63;;;5.18;100.00
41898;BME280;27576;53.366;-1.498;2023-04-26T04:32:15;100406.25;;;5.19;99.79
41898;BME280;27576;53.366;-1.498;2023-04-26T04:34:41;100402.63;;;5.14;100.00
41898;BME280;27576;53.366;-1.498;2023-04-26T04:37:07;100378.06;;;4.97;99.50
41898;BME280;27576;53.366;-1.498;2023-04-26T04:39:32;100338.00;;;4.76;98.35
41898;BME280;27576;53.366;-1.498;2023-04-26T04:41:58;100371.34;;;5.00;97.78
41898;BME280;27576;53.366;-1.498;2023-04-26T04:44:24;100378.44;;;5.07;98.62
41898;BME280;27576;53.366;-1.498;2023-04-26T04:46:51;100366.09;;;4.97;98.62
41898;BME280;27576;53.366;-1.498;2023-04-26T04:49:19;100408.91;;;5.22;97.49
41898;BME280;27576;53.366;-1.498;2023-04-26T04:51:45;100387.75;;;5.04;97.93
41898;BME280;27576;53.366;-1.498;2023-04-26T04:54:14;100361.56;;;4.90;96.44
41898;BME280;27576;53.366;-1.498;2023-04-26T04:56:40;100415.38;;;5.11;96.47
41898;BME280;27576;53.366;-1.498;2023-04-26T04:59:06;100388.25;;;4.95;97.93
41898;BME280;27576;53.366;-1.498;2023-04-26T05:01:32;100403.00;;;4.99;98.27
41898;BME280;27576;53.366;-1.498;2023-04-26T05:03:58;100432.47;;;5.10;99.13
41898;BME280;27576;53.366;-1.498;2023-04-26T05:06:23;100414.88;;;4.97;99.47
41898;BME280;27576;53.366;-1.498;2023-04-26T05:08:49;100396.59;;;4.88;99.81
41898;BME280;27576;53.366;-1.498;2023-04-26T05:11:14;100392.09;;;4.82;100.00
41898;BME280;27576;53.366;-1.498;2023-04-26T05:13:40;100400.91;;;4.89;100.00
41898;BME280;27576;53.366;-1.498;2023-04-26T05:16:05;100386.84;;;4.79;100.00
41898;BME280;27576;53.366;-1.498;2023-04-26T05:18:31;100397.34;;;4.85;99.35
41898;BME280;27576;53.366;-1.498;2023-04-26T05:20:57;100414.63;;;4.89;98.04
41898;BME280;27576;53.366;-1.498;2023-04-26T05:23:22;100325.53;;;4.39;99.05
41898;BME280;27576;53.366;-1.498;2023-04-26T05:25:47;100429.44;;;4.97;98.64
41898;BME280;27576;53.366;-1.498;2023-04-26T05:28:13;100393.53;;;4.74;98.48
41898;BME280;27576;53.366;-1.498;2023-04-26T05:30:38;100429.53;;;5.00;98.88
41898;BME280;27576;53.366;-1.498;2023-04-26T05:33:04;100392.00;;;4.79;99.72
41898;BME280;27576;53.366;-1.498;2023-04-26T05:35:31;100361.56;;;4.66;100.00
41898;BME280;27576;53.366;-1.498;2023-04-26T05:37:56;100384.47;;;4.84;100.00
41898;BME280;27576;53.366;-1.498;2023-04-26T05:40:22;100388.78;;;4.85;100.00
41898;BME280;27576;53.366;-1.498;2023-04-26T05:42:47;100406.59;;;5.04;100.00
41898;BME280;27576;53.366;-1.498;2023-04-26T05:45:12;100350.41;;;4.64;100.00
41898;BME280;27576;53.366;-1.498;2023-04-26T05:47:38;100389.16;;;4.96;100.00
41898;BME280;27576;53.366;-1.498;2023-04-26T05:50:03;100430.16;;;5.18;100.00
41898;BME280;27576;53.366;-1.498;2023-04-26T05:52:29;100376.09;;;4.89;100.00
41898;BME280;27576;53.366;-1.498;2023-04-26T05:54:55;100429.44;;;5.22;100.00
41898;BME280;27576;53.366;-1.498;2023-04-26T05:57:20;100402.44;;;5.08;100.00
41898;BME280;27576;53.366;-1.498;2023-04-26T05:59:46;100385.81;;;4.98;100.00
41898;BME280;27576;53.366;-1.498;2023-04-26T06:02:12;100392.94;;;5.07;100.00
41898;BME280;27576;53.366;-1.498;2023-04-26T06:04:37;100378.25;;;5.03;100.00
41898;BME280;27576;53.366;-1.498;2023-04-26T06:07:03;100388.09;;;5.14;100.00
41898;BME280;27576;53.366;-1.498;2023-04-26T06:09:31;100375.91;;;5.09;100.00
41898;BME280;27576;53.366;-1.498;2023-04-26T06:11:57;100375.91;;;5.09;100.00
41898;BME280;27576;53.366;-1.498;2023-04-26T06:14:22;100392.50;;;5.18;100.00
41898;BME280;27576;53.366;-1.498;2023-04-26T06:16:48;100390.88;;;5.21;100.00
41898;BME280;27576;53.366;-1.498;2023-04-26T06:19:13;100391.84;;;5.24;100.00
41898;BME280;27576;53.366;-1.498;2023-04-26T06:21:38;100409.28;;;5.33;100.00
41898;BME280;27576;53.366;-1.498;2023-04-26T06:24:04;100410.94;;;5.31;100.00
41898;BME280;27576;53.366;-1.498;2023-04-26T06:26:30;100409.09;;;5.27;100.00
41898;BME280;27576;53.366;-1.498;2023-04-26T06:28:56;100408.19;;;5.26;100.00
41898;BME280;27576;53.366;-1.498;2023-04-26T06:31:21;100426.38;;;5.32;100.00
41898;BME280;27576;53.366;-1.498;2023-04-26T06:33:47;100407.31;;;5.26;100.00
41898;BME280;27576;53.366;-1.498;2023-04-26T06:36:12;100424.09;;;5.40;100.00
41898;BME280;27576;53.366;-1.498;2023-04-26T06:38:39;100407.38;;;5.27;100.00
41898;BME280;27576;53.366;-1.498;2023-04-26T06:41:04;100410.22;;;5.35;100.00
41898;BME280;27576;53.366;-1.498;2023-04-26T06:43:30;100403.53;;;5.40;100.00
41898;BME280;27576;53.366;-1.498;2023-04-26T06:45:55;100392.78;;;5.52;100.00
41898;BME280;27576;53.366;-1.498;2023-04-26T06:48:22;100402.00;;;5.72;100.00
41898;BME280;27576;53.366;-1.498;2023-04-26T06:50:47;100414.88;;;5.98;100.00
41898;BME280;27576;53.366;-1.498;2023-04-26T06:53:12;100444.06;;;6.27;98.29
41898;BME280;27576;53.366;-1.498;2023-04-26T06:55:38;100407.16;;;6.26;98.56
41898;BME280;27576;53.366;-1.498;2023-04-26T06:58:03;100403.13;;;6.36;97.27
41898;BME280;27576;53.366;-1.498;2023-04-26T07:00:28;100396.44;;;6.41;96.88
41898;BME280;27576;53.366;-1.498;2023-04-26T07:02:54;100443.06;;;6.80;96.35
41898;BME280;27576;53.366;-1.498;2023-04-26T07:05:20;100449.38;;;6.92;94.59
41898;BME280;27576;53.366;-1.498;2023-04-26T07:07:45;100379.78;;;6.58;94.97
41898;BME280;27576;53.366;-1.498;2023-04-26T07:10:11;100392.16;;;6.72;93.66
41898;BME280;27576;53.366;-1.498;2023-04-26T07:12:36;100429.69;;;6.94;92.85
41898;BME280;27576;53.366;-1.498;2023-04-26T07:15:03;100443.84;;;7.08;92.43
41898;BME280;27576;53.366;-1.498;2023-04-26T07:17:31;100444.88;;;7.14;92.46
41898;BME280;27576;53.366;-1.498;2023-04-26T07:19:56;100418.06;;;7.08;90.59
41898;BME280;27576;53.366;-1.498;2023-04-26T07:22:22;100420.72;;;7.11;87.55
41898;BME280;27576;53.366;-1.498;2023-04-26T07:24:47;100408.53;;;7.04;87.72
41898;BME280;27576;53.366;-1.498;2023-04-26T07:27:13;100435.56;;;7.20;86.64
41898;BME280;27576;53.366;-1.498;2023-04-26T07:29:38;100445.34;;;7.31;88.48
41898;BME280;27576;53.366;-1.498;2023-04-26T07:32:04;100404.69;;;7.21;88.07
41898;BME280;27576;53.366;-1.498;2023-04-26T07:34:29;100443.16;;;7.47;88.47
41898;BME280;27576;53.366;-1.498;2023-04-26T07:36:55;100422.28;;;7.37;89.04
41898;BME280;27576;53.366;-1.498;2023-04-26T07:39:22;100397.16;;;7.30;88.64
41898;BME280;27576;53.366;-1.498;2023-04-26T07:41:48;100425.38;;;7.57;87.13
41898;BME280;27576;53.366;-1.498;2023-04-26T07:44:14;100401.16;;;7.51;86.23
41898;BME280;27576;53.366;-1.498;2023-04-26T07:46:42;100436.16;;;7.76;85.90
41898;BME280;27576;53.366;-1.498;2023-04-26T07:49:09;100409.28;;;7.68;84.74
41898;BME280;27576;53.366;-1.498;2023-04-26T07:51:35;100409.41;;;7.72;84.65
41898;BME280;27576;53.366;-1.498;2023-04-26T07:54:01;100432.22;;;7.90;84.35
41898;BME280;27576;53.366;-1.498;2023-04-26T07:56:26;100387.13;;;7.76;84.21
41898;BME280;27576;53.366;-1.498;2023-04-26T07:58:52;100429.16;;;8.08;82.75
41898;BME280;27576;53.366;-1.498;2023-04-26T08:01:17;100436.25;;;8.17;81.55
41898;BME280;27576;53.366;-1.498;2023-04-26T08:03:42;100428.59;;;8.21;81.23
41898;BME280;27576;53.366;-1.498;2023-04-26T08:06:08;100417.22;;;8.13;82.12
41898;BME280;27576;53.366;-1.498;2023-04-26T08:08:34;100392.31;;;8.14;82.07
41898;BME280;27576;53.366;-1.498;2023-04-26T08:11:07;100396.03;;;8.26;81.02
41898;BME280;27576;53.366;-1.498;2023-04-26T08:13:34;100432.75;;;8.51;79.48
41898;BME280;27576;53.366;-1.498;2023-04-26T08:15:59;100422.56;;;8.58;78.91
41898;BME280;27576;53.366;-1.498;2023-04-26T08:18:24;100388.03;;;8.53;78.48
41898;BME280;27576;53.366;-1.498;2023-04-26T08:20:50;100406.78;;;8.85;76.17
41898;BME280;27576;53.366;-1.498;2023-04-26T08:23:15;100408.09;;;9.10;76.46
41898;BME280;27576;53.366;-1.498;2023-04-26T08:25:43;100394.66;;;9.28;77.20
41898;BME280;27576;53.366;-1.498;2023-04-26T08:28:08;100377.50;;;9.35;73.18
41898;BME280;27576;53.366;-1.498;2023-04-26T08:30:34;100397.53;;;9.47;69.69
41898;BME280;27576;53.366;-1.498;2023-04-26T08:32:59;100388.78;;;9.39;67.51
41898;BME280;27576;53.366;-1.498;2023-04-26T08:35:25;100394.75;;;9.34;68.11
41898;BME280;27576;53.366;-1.498;2023-04-26T08:37:50;100355.66;;;9.16;69.95
41898;BME280;27576;53.366;-1.498;2023-04-26T08:40:22;100410.66;;;9.57;66.72
41898;BME280;27576;53.366;-1.498;2023-04-26T08:42:49;100403.75;;;9.58;64.81
41898;BME280;27576;53.366;-1.498;2023-04-26T08:45:14;100333.28;;;9.18;67.91
41898;BME280;27576;53.366;-1.498;2023-04-26T08:47:47;100404.69;;;9.62;65.42
41898;BME280;27576;53.366;-1.498;2023-04-26T08:50:13;100407.41;;;9.68;65.26
41898;BME280;27576;53.366;-1.498;2023-04-26T08:52:40;100391.00;;;9.67;65.58
41898;BME280;27576;53.366;-1.498;2023-04-26T08:55:10;100392.94;;;9.80;64.41
41898;BME280;27576;53.366;-1.498;2023-04-26T08:57:37;100373.03;;;9.76;59.98
41898;BME280;27576;53.366;-1.498;2023-04-26T09:00:05;100394.66;;;9.81;59.35
41898;BME280;27576;53.366;-1.498;2023-04-26T09:02:34;100368.59;;;9.69;60.83
41898;BME280;27576;53.366;-1.498;2023-04-26T09:05:00;100410.44;;;9.97;60.62
41898;BME280;27576;53.366;-1.498;2023-04-26T09:07:34;100394.81;;;9.91;60.37
41898;BME280;27576;53.366;-1.498;2023-04-26T09:10:03;100379.31;;;9.94;59.73
41898;BME280;27576;53.366;-1.498;2023-04-26T09:12:29;100402.03;;;10.13;58.92
41898;BME280;27576;53.366;-1.498;2023-04-26T09:14:54;100388.22;;;10.11;60.12
41898;BME280;27576;53.366;-1.498;2023-04-26T09:19:59;100400.66;;;10.34;59.65
41898;BME280;27576;53.366;-1.498;2023-04-26T09:22:32;100391.44;;;10.55;57.56
41898;BME280;27576;53.366;-1.498;2023-04-26T09:24:59;100359.38;;;10.49;56.38
41898;BME280;27576;53.366;-1.498;2023-04-26T09:27:38;100379.66;;;10.82;55.56
41898;BME280;27576;53.366;-1.498;2023-04-26T09:30:11;100402.47;;;11.14;56.76
41898;BME280;27576;53.366;-1.498;2023-04-26T09:38:13;100395.78;;;11.39;54.85
41898;BME280;27576;53.366;-1.498;2023-04-26T09:40:44;100401.88;;;11.42;52.92
41898;BME280;27576;53.366;-1.498;2023-04-26T09:43:14;100408.88;;;11.49;55.45
41898;BME280;27576;53.366;-1.498;2023-04-26T09:45:50;100397.63;;;11.49;53.22
41898;BME280;27576;53.366;-1.498;2023-04-26T09:50:46;100364.00;;;11.61;51.50
41898;BME280;27576;53.366;-1.498;2023-04-26T09:56:21;100371.22;;;11.99;50.43
41898;BME280;27576;53.366;-1.498;2023-04-26T10:01:17;100383.53;;;12.37;47.44
41898;BME280;27576;53.366;-1.498;2023-04-26T10:03:43;100372.28;;;12.35;47.16
41898;BME280;27576;53.366;-1.498;2023-04-26T10:06:08;100387.94;;;12.42;46.45
41898;BME280;27576;53.366;-1.498;2023-04-26T10:08:34;100357.59;;;12.40;46.68
41898;BME280;27576;53.366;-1.498;2023-04-26T10:11:03;100393.13;;;12.47;47.41
41898;BME280;27576;53.366;-1.498;2023-04-26T10:13:32;100393.00;;;12.24;45.69
41898;BME280;27576;53.366;-1.498;2023-04-26T10:16:02;100383.41;;;12.12;47.41
41898;BME280;27576;53.366;-1.498;2023-04-26T10:18:31;100356.50;;;12.01;47.65
41898;BME280;27576;53.366;-1.498;2023-04-26T10:21:04;100369.63;;;12.25;45.93
41898;BME280;27576;53.366;-1.498;2023-04-26T10:23:30;100345.41;;;12.26;45.35
41898;BME280;27576;53.366;-1.498;2023-04-26T10:25:57;100344.50;;;12.26;45.89
41898;BME280;27576;53.366;-1.498;2023-04-26T10:28:53;100366.34;;;12.59;46.44
41898;BME280;27576;53.366;-1.498;2023-04-26T10:31:19;100316.91;;;12.52;45.44
41898;BME280;27576;53.366;-1.498;2023-04-26T10:34:17;100356.81;;;12.62;41.30
41898;BME280;27576;53.366;-1.498;2023-04-26T10:37:05;100365.31;;;12.29;42.62
41898;BME280;27576;53.366;-1.498;2023-04-26T10:39:32;100321.69;;;11.77;44.09
41898;BME280;27576;53.366;-1.498;2023-04-26T10:44:52;100361.34;;;11.55;42.63
41898;BME280;27576;53.366;-1.498;2023-04-26T10:47:21;100360.38;;;11.41;42.33
41898;BME280;27576;53.366;-1.498;2023-04-26T10:49:48;100350.84;;;11.41;43.71
41898;BME280;27576;53.366;-1.498;2023-04-26T10:52:15;100337.94;;;11.49;42.84
41898;BME280;27576;53.366;-1.498;2023-04-26T10:54:45;100311.16;;;11.53;44.77
41898;BME280;27576;53.366;-1.498;2023-04-26T10:57:11;100338.16;;;11.83;45.57
41898;BME280;27576;53.366;-1.498;2023-04-26T10:59:37;100341.75;;;11.91;43.00
41898;BME280;27576;53.366;-1.498;2023-04-26T11:02:02;100333.75;;;11.68;43.43
41898;BME280;27576;53.366;-1.498;2023-04-26T11:04:53;100316.19;;;11.35;43.52
41898;BME280;27576;53.366;-1.498;2023-04-26T11:07:37;100352.50;;;11.33;44.24
41898;BME280;27576;53.366;-1.498;2023-04-26T11:10:07;100339.38;;;11.15;45.67
41898;BME280;27576;53.366;-1.498;2023-04-26T11:12:34;100340.09;;;11.00;46.57
41898;BME280;27576;53.366;-1.498;2023-04-26T11:14:59;100300.03;;;10.70;47.50
41898;BME280;27576;53.366;-1.498;2023-04-26T11:17:25;100323.41;;;10.76;46.76
41898;BME280;27576;53.366;-1.498;2023-04-26T11:19:50;100325.91;;;10.67;46.78
41898;BME280;27576;53.366;-1.498;2023-04-26T11:22:20;100349.28;;;10.70;46.67
41898;BME280;27576;53.366;-1.498;2023-04-26T11:24:46;100347.38;;;10.54;47.19
41898;BME280;27576;53.366;-1.498;2023-04-26T11:27:12;100337.78;;;10.45;47.30
41898;BME280;27576;53.366;-1.498;2023-04-26T11:29:38;100343.69;;;10.34;47.10
41898;BME280;27576;53.366;-1.498;2023-04-26T11:32:04;100363.53;;;10.36;47.29
41898;BME280;27576;53.366;-1.498;2023-04-26T11:34:31;100353.06;;;10.27;47.50
41898;BME280;27576;53.366;-1.498;2023-04-26T11:36:57;100359.88;;;10.22;48.05
41898;BME280;27576;53.366;-1.498;2023-04-26T11:39:24;100321.59;;;9.99;48.14
41898;BME280;27576;53.366;-1.498;2023-04-26T11:41:49;100354.56;;;10.11;47.70
41898;BME280;27576;53.366;-1.498;2023-04-26T11:44:19;100337.13;;;9.99;47.62
41898;BME280;27576;53.366;-1.498;2023-04-26T11:46:47;100325.75;;;9.90;48.39
41898;BME280;27576;53.366;-1.498;2023-04-26T11:49:13;100352.72;;;10.04;48.51
41898;BME280;27576;53.366;-1.498;2023-04-26T11:51:40;100319.66;;;9.84;49.22
41898;BME280;27576;53.366;-1.498;2023-04-26T11:54:06;100350.13;;;10.02;49.78
41898;BME280;27576;53.366;-1.498;2023-04-26T11:56:31;100341.28;;;9.90;49.99
41898;BME280;27576;53.366;-1.498;2023-04-26T11:58:58;100341.34;;;9.93;50.02
41898;BME280;27576;53.366;-1.498;2023-04-26T12:01:24;100367.41;;;10.05;49.89
41898;BME280;27576;53.366;-1.498;2023-04-26T12:03:52;100365.66;;;10.04;49.50
41898;BME280;27576;53.366;-1.498;2023-04-26T12:06:18;100344.75;;;9.89;48.76
41898;BME280;27576;53.366;-1.498;2023-04-26T12:08:50;100367.41;;;10.03;47.84
41898;BME280;27576;53.366;-1.498;2023-04-26T12:11:17;100326.56;;;9.86;48.04
41898;BME280;27576;53.366;-1.498;2023-04-26T12:13:42;100341.28;;;9.90;47.75
41898;BME280;27576;53.366;-1.498;2023-04-26T12:16:08;100334.34;;;9.86;47.55
41898;BME280;27576;53.366;-1.498;2023-04-26T12:18:33;100356.13;;;10.01;47.85
41898;BME280;27576;53.366;-1.498;2023-04-26T12:21:00;100370.94;;;10.10;48.07
41898;BME280;27576;53.366;-1.498;2023-04-26T12:23:26;100349.16;;;9.96;47.04
41898;BME280;27576;53.366;-1.498;2023-04-26T12:25:56;100374.38;;;10.09;47.58
41898;BME280;27576;53.366;-1.498;2023-04-26T12:28:24;100355.19;;;9.95;47.42
41898;BME280;27576;53.366;-1.498;2023-04-26T12:30:50;100364.00;;;10.09;48.80
41898;BME280;27576;53.366;-1.498;2023-04-26T12:33:16;100330.13;;;9.91;47.91
41898;BME280;27576;53.366;-1.498;2023-04-26T12:35:44;100362.16;;;10.02;47.68
41898;BME280;27576;53.366;-1.498;2023-04-26T12:38:10;100359.75;;;10.11;48.35
41898;BME280;27576;53.366;-1.498;2023-04-26T12:40:36;100359.81;;;10.17;47.91
41898;BME280;27576;53.366;-1.498;2023-04-26T12:43:01;100315.50;;;9.94;48.22
41898;BME280;27576;53.366;-1.498;2023-04-26T12:45:27;100357.31;;;10.23;48.30
41898;BME280;27576;53.366;-1.498;2023-04-26T12:47:53;100343.47;;;10.21;47.85
41898;BME280;27576;53.366;-1.498;2023-04-26T12:50:18;100341.69;;;10.17;47.79
41898;BME280;27576;53.366;-1.498;2023-04-26T12:52:44;100361.00;;;10.38;48.23
41898;BME280;27576;53.366;-1.498;2023-04-26T12:55:11;100369.69;;;10.44;48.68
41898;BME280;27576;53.366;-1.498;2023-04-26T12:57:38;100370.56;;;10.43;48.02
41898;BME280;27576;53.366;-1.498;2023-04-26T13:00:05;100352.38;;;10.40;47.71
41898;BME280;27576;53.366;-1.498;2023-04-26T13:02:31;100352.41;;;10.42;48.29